Time;durP1;ratioP1;P1;durP2;ratioP2;P2;SDS_P1;SDS_P2;PMS_P1;PMS_P2;Temp;Humidity;BMP_temperature;BMP_pressure;BME280_temperature;BME280_humidity;BME280_pressure;Samples;Min_cycle;Max_cycle;Signal;HPM_P1;HPM_P2
2023/01/13 00:01:20;;;;;;;13.43;1.83;;;;;;;7.23;100.00;100435.22;5043465;28;20464;-91
2023/01/13 00:03:46;;;;;;;9.23;1.70;;;;;;;7.21;100.00;100429.22;5043537;28;20516;-91
2023/01/13 00:06:16;;;;;;;15.25;2.20;;;;;;;7.19;100.00;100424.09;5025317;28;20595;-92
2023/01/13 00:08:42;;;;;;;14.27;2.17;;;;;;;7.24;100.00;100417.13;5044500;28;20021;-91
2023/01/13 00:11:08;;;;;;;13.52;2.08;;;;;;;7.25;100.00;100426.56;5025253;28;20024;-91
2023/01/13 00:13:34;;;;;;;15.85;2.10;;;;;;;7.22;100.00;100418.03;5026581;28;20630;-90
2023/01/13 00:16:05;;;;;;;17.85;2.30;;;;;;;7.17;100.00;100418.09;5025658;28;21077;-91
2023/01/13 00:18:31;;;;;;;18.55;2.03;;;;;;;7.10;100.00;100413.91;5024995;28;20037;-91
2023/01/13 00:21:00;;;;;;;15.65;2.13;;;;;;;7.04;100.00;100407.16;5043714;28;20050;-91
2023/01/13 00:23:28;;;;;;;21.08;2.83;;;;;;;6.95;100.00;100397.00;5025052;28;20029;-90
2023/01/13 00:25:57;;;;;;;14.98;2.53;;;;;;;6.95;100.00;100393.56;5043165;28;20029;-90
2023/01/13 00:28:23;;;;;;;24.10;2.90;;;;;;;6.85;100.00;100384.28;5025842;28;20041;-90
2023/01/13 00:30:48;;;;;;;18.55;2.88;;;;;;;6.85;100.00;100395.44;5026127;28;20020;-90
2023/01/13 00:33:14;;;;;;;13.18;2.38;;;;;;;6.79;100.00;100392.09;5044421;28;20451;-90
2023/01/13 00:35:39;;;;;;;14.10;2.38;;;;;;;6.77;100.00;100389.53;5044680;28;20043;-90
2023/01/13 00:38:04;;;;;;;18.60;2.25;;;;;;;6.70;100.00;100387.94;5024483;28;20040;-91
2023/01/13 00:40:29;;;;;;;16.13;2.10;;;;;;;6.68;100.00;100387.13;5045160;28;20079;-90
2023/01/13 00:43:37;;;;;;;21.27;2.28;;;;;;;6.63;100.00;100376.88;5019767;28;20032;-89
2023/01/13 00:45:43;;;;;;;18.75;2.13;;;;;;;6.61;100.00;100375.22;5035619;28;21473;-90
2023/01/13 00:48:09;;;;;;;17.75;2.08;;;;;;;6.57;100.00;100376.97;5023400;28;20497;-91
2023/01/13 00:50:34;;;;;;;19.52;2.10;;;;;;;6.49;100.00;100380.53;5041048;28;20140;-90
2023/01/13 00:53:00;;;;;;;19.65;2.05;;;;;;;6.48;100.00;100376.28;5044559;28;20025;-91
2023/01/13 00:55:25;;;;;;;17.67;2.33;;;;;;;6.48;100.00;100381.44;5024995;28;20183;-91
2023/01/13 00:57:51;;;;;;;20.95;2.22;;;;;;;6.47;100.00;100382.31;5037473;28;20044;-90
2023/01/13 01:00:17;;;;;;;25.88;2.80;;;;;;;6.41;100.00;100384.97;5036924;28;20063;-91
2023/01/13 01:02:42;;;;;;;18.35;3.05;;;;;;;6.41;100.00;100388.38;5024760;28;20033;-90
2023/01/13 01:05:08;;;;;;;20.98;2.67;;;;;;;6.40;100.00;100389.25;5025312;28;20033;-91
2023/01/13 01:07:34;;;;;;;21.98;2.58;;;;;;;6.40;100.00;100396.97;5042911;28;20020;-90
2023/01/13 01:09:59;;;;;;;27.48;2.20;;;;;;;6.34;100.00;100389.34;5042815;28;20040;-91
2023/01/13 01:12:24;;;;;;;25.17;2.90;;;;;;;6.39;100.00;100402.16;5042860;28;20025;-91
2023/01/13 01:14:49;;;;;;;23.67;2.90;;;;;;;6.41;100.00;100396.13;5044353;28;20148;-91
2023/01/13 01:17:15;;;;;;;22.98;2.83;;;;;;;6.41;100.00;100395.25;5042405;28;20023;-91
2023/01/13 01:19:41;;;;;;;26.23;3.13;;;;;;;6.42;100.00;100397.78;5046026;28;20025;-91
2023/01/13 01:22:06;;;;;;;17.63;2.15;;;;;;;6.42;100.00;100395.22;5027912;28;20036;-90
2023/01/13 01:24:31;;;;;;;19.17;2.45;;;;;;;6.49;100.00;100408.84;5045796;28;20025;-90
2023/01/13 01:26:57;;;;;;;23.42;2.80;;;;;;;6.50;100.00;100403.69;5046599;28;20061;-91
2023/01/13 01:29:22;;;;;;;26.80;2.13;;;;;;;6.51;100.00;100407.13;5029618;28;20054;-91
2023/01/13 01:31:47;;;;;;;26.83;2.70;;;;;;;6.50;100.00;100401.13;5046695;28;20040;-90
2023/01/13 01:34:13;;;;;;;25.98;2.70;;;;;;;6.51;100.00;100402.81;5047263;28;20109;-90
2023/01/13 01:36:38;;;;;;;19.70;2.58;;;;;;;6.53;100.00;100395.94;5029074;28;20156;-91
2023/01/13 01:39:04;;;;;;;15.98;2.15;;;;;;;6.55;100.00;100406.22;5046658;28;20516;-91
2023/01/13 01:41:32;;;;;;;18.50;2.90;;;;;;;6.52;100.00;100395.94;5047638;28;20458;-91
2023/01/13 01:43:59;;;;;;;23.75;3.00;;;;;;;6.52;100.00;100398.53;5029261;28;20110;-91
2023/01/13 01:46:33;;;;;;;19.13;2.00;;;;;;;6.51;100.00;100401.97;5046779;28;20082;-90
2023/01/13 01:49:15;;;;;;;25.98;2.63;;;;;;;6.46;100.00;100404.63;5028071;28;20500;-91
2023/01/13 01:51:45;;;;;;;26.10;2.78;;;;;;;6.44;100.00;100402.94;5047721;28;20065;-90
2023/01/13 01:54:16;;;;;;;23.30;2.63;;;;;;;6.42;100.00;100405.50;5048254;28;20040;-91
2023/01/13 01:56:43;;;;;;;18.35;2.88;;;;;;;6.39;100.00;100394.41;5045578;28;20036;-90
2023/01/13 01:59:09;;;;;;;23.08;2.63;;;;;;;6.36;100.00;100390.16;5039871;28;20791;-90
2023/01/13 02:01:37;;;;;;;20.42;2.85;;;;;;;6.37;100.00;100388.44;5047456;28;20421;-90
2023/01/13 02:04:27;;;;;;;26.23;2.50;;;;;;;6.35;100.00;100396.16;5025138;28;20098;-90
2023/01/13 02:06:52;;;;;;;18.00;2.30;;;;;;;6.36;100.00;100387.59;5025437;28;20060;-91
2023/01/13 02:09:18;;;;;;;20.42;2.10;;;;;;;6.30;100.00;100391.09;5027263;28;20128;-91
2023/01/13 02:14:29;;;;;;;20.98;2.75;;;;;;;6.21;100.00;100388.63;5046701;28;20056;-91
2023/01/13 02:17:27;;;;;;;22.17;2.95;;;;;;;6.18;100.00;100393.00;5046044;28;20524;-90
2023/01/13 02:20:27;;;;;;;18.85;3.17;;;;;;;6.16;100.00;100385.28;5043882;28;20037;-91
2023/01/13 02:23:05;;;;;;;24.00;3.25;;;;;;;6.14;100.00;100376.72;5047078;28;20029;-90
2023/01/13 02:25:54;;;;;;;31.95;2.90;;;;;;;6.10;100.00;100375.06;5045604;28;20041;-91
2023/01/13 02:31:40;;;;;;;25.67;3.40;;;;;;;6.15;100.00;100377.56;5026848;28;20029;-90
2023/01/13 02:31:41;;;;;;;20.38;2.70;;;;;;;6.05;100.00;100394.88;5044914;28;20068;-91
2023/01/13 02:34:12;;;;;;;28.15;3.53;;;;;;;6.02;100.00;100392.31;5046852;28;20389;-90
2023/01/13 02:36:51;;;;;;;30.77;3.30;;;;;;;6.02;100.00;100394.03;5045212;28;20021;-90
2023/01/13 02:39:32;;;;;;;23.05;3.10;;;;;;;5.97;100.00;100396.69;5028477;28;20028;-90
2023/01/13 02:45:03;;;;;;;27.70;2.67;;;;;;;5.95;100.00;100398.41;5045520;28;20040;-90
2023/01/13 02:47:31;;;;;;;27.70;3.00;;;;;;;5.95;100.00;100382.97;5045601;28;20033;-90
2023/01/13 02:50:02;;;;;;;23.30;3.13;;;;;;;5.93;100.00;100387.31;5044982;28;20079;-90
2023/01/13 02:52:39;;;;;;;26.02;3.10;;;;;;;5.97;100.00;100383.81;5046832;28;20605;-90
2023/01/13 02:55:13;;;;;;;24.55;2.40;;;;;;;6.06;100.00;100365.72;5045145;28;20392;-90
2023/01/13 02:57:40;;;;;;;22.90;2.60;;;;;;;6.06;100.00;100381.13;5045221;28;20024;-91
2023/01/13 03:00:08;;;;;;;26.38;3.08;;;;;;;6.12;100.00;100375.06;5043210;28;20028;-90
2023/01/13 03:02:34;;;;;;;28.33;2.47;;;;;;;6.15;100.00;100383.56;5026079;28;20397;-90
2023/01/13 03:04:59;;;;;;;24.38;2.58;;;;;;;6.13;100.00;100367.31;5026304;28;20024;-91
2023/01/13 03:07:40;;;;;;;21.90;2.80;;;;;;;6.20;100.00;100365.53;5027366;28;20024;-90
2023/01/13 03:10:14;;;;;;;24.00;2.88;;;;;;;6.19;100.00;100374.09;5044606;28;20021;-90
2023/01/13 03:13:00;;;;;;;24.38;2.42;;;;;;;6.22;100.00;100374.91;5044621;28;20028;-90
2023/01/13 03:15:46;;;;;;;23.10;2.50;;;;;;;6.31;100.00;100367.06;5044791;28;20660;-90
2023/01/13 03:18:35;;;;;;;28.95;3.05;;;;;;;6.39;100.00;100355.81;5045116;28;20034;-90
2023/01/13 03:21:04;;;;;;;15.80;2.53;;;;;;;6.43;100.00;100360.03;5045432;28;20051;-90
2023/01/13 03:23:45;;;;;;;23.40;2.65;;;;;;;6.45;100.00;100345.41;5044218;28;20573;-90
2023/01/13 03:26:20;;;;;;;19.83;2.22;;;;;;;6.42;100.00;100341.16;5044496;28;20068;-90
2023/01/13 03:28:55;;;;;;;24.42;2.67;;;;;;;6.47;100.00;100339.38;5045723;28;20021;-90
2023/01/13 03:31:30;;;;;;;21.85;3.28;;;;;;;6.53;100.00;100333.28;5043797;28;20113;-90
2023/01/13 03:34:01;;;;;;;20.45;2.65;;;;;;;6.58;100.00;100341.78;5044466;28;20028;-90
2023/01/13 03:36:30;;;;;;;22.00;2.33;;;;;;;6.65;100.00;100338.25;5025638;28;20114;-90
2023/01/13 03:39:00;;;;;;;23.58;2.67;;;;;;;6.68;100.00;100333.91;5044285;28;20021;-90
2023/01/13 03:41:52;;;;;;;18.08;2.65;;;;;;;6.69;100.00;100319.28;5027051;28;20028;-90
2023/01/13 03:44:31;;;;;;;17.20;2.38;;;;;;;6.72;100.00;100335.53;5044488;28;20029;-90
2023/01/13 03:47:02;;;;;;;13.57;1.95;;;;;;;6.73;100.00;100336.41;5036587;28;20028;-90
2023/01/13 03:49:52;;;;;;;12.77;1.95;;;;;;;6.75;100.00;100329.50;5037224;28;20563;-89
2023/01/13 03:52:23;;;;;;;11.90;1.80;;;;;;;6.74;100.00;100326.06;5043094;28;20044;-90
2023/01/13 03:54:54;;;;;;;12.80;2.15;;;;;;;6.75;100.00;100339.81;5044536;28;20699;-90
2023/01/13 03:57:26;;;;;;;14.05;1.80;;;;;;;6.79;100.00;100330.28;5043447;28;20521;-90
2023/01/13 03:59:57;;;;;;;8.23;1.13;;;;;;;6.78;100.00;100332.00;5044992;28;20029;-89
2023/01/13 04:02:39;;;;;;;5.45;1.08;;;;;;;6.77;100.00;100339.75;5042848;28;20071;-89
2023/01/13 04:05:08;;;;;;;7.03;1.10;;;;;;;6.77;100.00;100321.72;5043105;28;20397;-89
2023/01/13 04:07:46;;;;;;;7.63;1.10;;;;;;;6.80;100.00;100340.56;5041865;28;20064;-89
2023/01/13 04:10:19;;;;;;;7.78;1.10;;;;;;;6.80;100.00;100342.28;5044194;28;20120;-89
2023/01/13 04:13:01;;;;;;;5.18;0.90;;;;;;;6.81;100.00;100364.63;5024414;28;20120;-89
2023/01/13 04:15:33;;;;;;;8.43;1.10;;;;;;;6.79;100.00;100362.06;5025743;28;20089;-89
2023/01/13 04:18:19;;;;;;;6.97;0.88;;;;;;;6.81;100.00;100370.63;5044376;28;20064;-89
2023/01/13 04:20:47;;;;;;;5.68;1.25;;;;;;;6.77;100.00;100374.09;5042500;28;20048;-90
2023/01/13 04:23:13;;;;;;;5.20;0.93;;;;;;;6.71;100.00;100371.63;5024805;28;20033;-90
2023/01/13 04:25:40;;;;;;;5.53;0.65;;;;;;;6.70;100.00;100368.19;5043881;28;20047;-90
2023/01/13 04:28:06;;;;;;;4.45;0.88;;;;;;;6.66;100.00;100376.84;5025317;28;20055;-90
2023/01/13 04:30:31;;;;;;;4.85;0.70;;;;;;;6.63;100.00;100364.00;5042484;28;20124;-89
2023/01/13 04:32:57;;;;;;;4.25;0.80;;;;;;;6.60;100.00;100386.41;5025435;28;20147;-90
2023/01/13 04:35:22;;;;;;;5.38;1.00;;;;;;;6.55;100.00;100389.00;5044038;28;20051;-90
2023/01/13 04:37:47;;;;;;;5.85;1.05;;;;;;;6.54;100.00;100378.75;5044403;28;20032;-89
2023/01/13 04:40:13;;;;;;;8.50;1.60;;;;;;;6.63;100.00;100381.19;5043431;28;20029;-89
2023/01/13 04:42:38;;;;;;;11.35;1.52;;;;;;;6.66;100.00;100378.56;5026464;28;20021;-89
2023/01/13 04:45:04;;;;;;;5.90;1.63;;;;;;;6.67;100.00;100375.13;5043637;28;20024;-90
2023/01/13 04:47:29;;;;;;;9.23;1.70;;;;;;;6.69;100.00;100379.34;5041395;28;20140;-90
2023/01/13 04:49:54;;;;;;;7.82;1.30;;;;;;;6.68;100.00;100382.84;5042752;28;20509;-90
2023/01/13 04:52:20;;;;;;;9.35;1.40;;;;;;;6.71;100.00;100381.91;5025358;28;20082;-89
2023/01/13 04:54:45;;;;;;;12.10;2.70;;;;;;;6.71;100.00;100369.03;5038264;28;20020;-89
2023/01/13 04:57:10;;;;;;;8.30;1.45;;;;;;;6.59;100.00;100353.78;5018394;28;20028;-90
2023/01/13 04:59:36;;;;;;;8.20;1.77;;;;;;;6.52;100.00;100357.31;5017876;28;20029;-89
2023/01/13 05:02:01;;;;;;;11.02;1.48;;;;;;;6.43;100.00;100345.44;5038893;28;20017;-89
2023/01/13 05:04:26;;;;;;;9.35;1.90;;;;;;;6.34;100.00;100354.16;5024626;28;20393;-89
2023/01/13 05:06:52;;;;;;;9.40;1.80;;;;;;;6.38;100.00;100362.69;5043224;28;20025;-89
2023/01/13 05:09:17;;;;;;;12.27;2.08;;;;;;;6.29;100.00;100360.22;5041668;28;20039;-89
2023/01/13 05:17:19;;;;;;;14.55;2.00;;;;;;;6.12;100.00;100350.19;5043147;28;20176;-89
2023/01/13 05:19:44;;;;;;;8.25;1.65;;;;;;;6.07;100.00;100362.25;5043249;28;20553;-89
2023/01/13 05:27:37;;;;;;;8.65;2.22;;;;;;;6.14;100.00;100361.28;5044238;28;20559;-89
2023/01/13 05:30:03;;;;;;;16.05;1.85;;;;;;;6.08;100.00;100351.06;5042200;28;20256;-89
2023/01/13 05:32:28;;;;;;;16.60;2.13;;;;;;;6.15;100.00;100357.00;5026022;28;20043;-89
2023/01/13 05:34:54;;;;;;;11.60;1.90;;;;;;;6.08;100.00;100356.22;5043680;28;20033;-89
2023/01/13 05:37:21;;;;;;;14.18;2.13;;;;;;;6.08;100.00;100376.81;5025079;28;20087;-89
2023/01/13 05:45:14;;;;;;;15.43;2.70;;;;;;;6.11;100.00;100371.63;5042592;28;20341;-90
2023/01/13 05:47:39;;;;;;;11.48;1.90;;;;;;;6.17;100.00;100379.25;5043934;28;20044;-89
2023/01/13 05:50:05;;;;;;;16.77;2.67;;;;;;;6.19;100.00;100387.81;5043576;28;20130;-89
2023/01/13 05:52:31;;;;;;;15.15;2.53;;;;;;;6.19;100.00;100389.53;5024883;28;20021;-89
2023/01/13 05:54:56;;;;;;;14.23;1.80;;;;;;;6.18;100.00;100401.56;5041752;28;20115;-90
2023/01/13 05:57:21;;;;;;;16.27;2.10;;;;;;;6.18;100.00;100398.97;5041891;28;20144;-90
2023/01/13 05:59:47;;;;;;;13.63;1.80;;;;;;;6.17;100.00;100406.72;5043312;28;20478;-89
2023/01/13 06:02:12;;;;;;;14.88;1.77;;;;;;;6.15;100.00;100404.16;5026004;28;20123;-89
2023/01/13 06:04:37;;;;;;;15.02;1.95;;;;;;;6.11;100.00;100406.78;5027024;28;20017;-89
2023/01/13 06:07:02;;;;;;;17.55;2.33;;;;;;;6.03;100.00;100406.88;5028292;28;20025;-89
2023/01/13 06:09:28;;;;;;;15.52;2.60;;;;;;;6.04;100.00;100405.16;5047746;28;20056;-88
2023/01/13 06:11:53;;;;;;;14.75;1.65;;;;;;;6.03;100.00;100409.47;5047247;28;20256;-89
2023/01/13 06:14:18;;;;;;;15.00;2.10;;;;;;;5.99;100.00;100412.09;5029123;28;20487;-90
2023/01/13 06:16:46;;;;;;;17.77;2.40;;;;;;;5.95;100.00;100418.97;5046988;28;20047;-90
2023/01/13 06:19:12;;;;;;;16.60;1.95;;;;;;;5.88;100.00;100410.50;5029368;28;20426;-90
2023/01/13 06:21:39;;;;;;;12.02;2.22;;;;;;;5.89;100.00;100419.91;5046117;28;20542;-90
2023/01/13 06:24:05;;;;;;;10.25;1.75;;;;;;;5.87;100.00;100420.75;5027856;28;20032;-90
2023/01/13 06:26:35;;;;;;;17.05;1.85;;;;;;;5.85;100.00;100417.38;5046184;28;20025;-90
2023/01/13 06:29:00;;;;;;;14.18;2.10;;;;;;;5.85;100.00;100415.66;5028906;28;20068;-90
2023/01/13 06:32:11;;;;;;;13.55;1.58;;;;;;;5.78;100.00;100400.31;5046835;28;20760;-90
2023/01/13 06:34:39;;;;;;;10.77;1.85;;;;;;;5.76;100.00;100395.19;4991396;28;20045;-90
2023/01/13 06:37:05;;;;;;;14.93;1.95;;;;;;;5.87;100.00;100410.47;5045030;28;20025;-90
2023/01/13 06:39:31;;;;;;;13.00;1.70;;;;;;;5.83;100.00;100412.25;5046408;28;20017;-91
2023/01/13 06:44:44;;;;;;;16.60;2.00;;;;;;;5.80;100.00;100432.00;5046631;28;20122;-91
2023/01/13 06:47:09;;;;;;;16.55;2.22;;;;;;;5.79;100.00;100426.00;5046890;28;20033;-89
2023/01/13 06:49:34;;;;;;;11.85;1.70;;;;;;;5.80;100.00;100432.00;5027600;28;20040;-90
2023/01/13 06:52:00;;;;;;;12.77;2.28;;;;;;;5.74;100.00;100416.63;5046120;28;20036;-90
2023/01/13 06:54:25;;;;;;;15.18;2.08;;;;;;;5.74;100.00;100416.63;5045029;28;20045;-90
2023/01/13 06:56:51;;;;;;;15.95;2.20;;;;;;;5.73;100.00;100413.19;5019482;28;20103;-91
2023/01/13 06:59:16;;;;;;;16.35;2.03;;;;;;;5.72;100.00;100413.25;5037288;28;20032;-90
2023/01/13 07:01:42;;;;;;;10.25;1.90;;;;;;;5.72;100.00;100418.38;5023648;28;20044;-89
2023/01/13 07:04:07;;;;;;;14.52;1.70;;;;;;;5.70;100.00;100407.25;5039919;28;20025;-89
2023/01/13 07:06:32;;;;;;;13.50;1.70;;;;;;;5.73;100.00;100423.47;5043243;28;20107;-89
2023/01/13 07:08:58;;;;;;;16.58;1.98;;;;;;;5.75;100.00;100426.03;5026617;28;20486;-89
2023/01/13 07:11:23;;;;;;;15.15;2.42;;;;;;;5.83;100.00;100427.66;5045329;28;20440;-89
2023/01/13 07:16:32;;;;;;;16.50;2.42;;;;;;;5.88;100.00;100418.22;5045197;28;20134;-89
2023/01/13 07:18:58;;;;;;;12.38;1.83;;;;;;;5.94;100.00;100425.00;5027092;28;20104;-90
2023/01/13 07:21:23;;;;;;;14.45;2.22;;;;;;;5.94;100.00;100428.41;5044957;28;20176;-89
2023/01/13 07:23:48;;;;;;;21.83;2.65;;;;;;;5.93;100.00;100428.47;5025322;28;20048;-89
2023/01/13 07:26:14;;;;;;;14.40;2.33;;;;;;;5.89;100.00;100432.78;5025768;28;20432;-89
2023/01/13 07:28:40;;;;;;;13.35;1.92;;;;;;;5.88;100.00;100430.22;5045421;28;20023;-89
2023/01/13 07:31:14;;;;;;;16.25;2.15;;;;;;;5.85;100.00;100435.38;5026688;28;20043;-88
2023/01/13 07:33:39;;;;;;;10.32;2.22;;;;;;;5.85;100.00;100436.22;5045691;28;20467;-89
2023/01/13 07:36:05;;;;;;;13.55;2.10;;;;;;;5.84;100.00;100436.25;5027299;28;20107;-89
2023/01/13 07:38:32;;;;;;;16.73;1.88;;;;;;;5.81;100.00;100433.69;5045566;28;20032;-89
2023/01/13 07:43:30;;;;;;;21.88;2.03;;;;;;;5.77;100.00;100432.88;5045552;28;20024;-88
2023/01/13 07:43:42;;;;;;;14.15;1.92;;;;;;;5.82;100.00;100432.81;5045504;28;20131;-89
2023/01/13 07:46:08;;;;;;;16.75;1.85;;;;;;;5.84;100.00;100437.09;5045985;28;20453;-90
2023/01/13 07:48:33;;;;;;;14.60;1.90;;;;;;;5.84;100.00;100438.81;5027499;28;20529;-89
2023/01/13 07:51:04;;;;;;;15.88;2.03;;;;;;;5.87;100.00;100449.06;5039359;28;20052;-89
2023/01/13 07:53:30;;;;;;;17.13;2.33;;;;;;;5.85;100.00;100454.22;5044319;28;20462;-89
2023/01/13 07:55:56;;;;;;;16.25;1.70;;;;;;;5.89;100.00;100458.50;5026753;28;20578;-90
2023/01/13 07:58:23;;;;;;;16.52;2.17;;;;;;;5.90;100.00;100449.06;5045840;28;20040;-89
2023/01/13 08:00:49;;;;;;;10.82;1.83;;;;;;;5.91;100.00;100463.63;5027030;28;20027;-89
2023/01/13 08:03:14;;;;;;;15.00;2.10;;;;;;;5.92;100.00;100458.47;5045185;28;20032;-89
2023/01/13 08:05:40;;;;;;;20.35;2.58;;;;;;;5.96;100.00;100459.28;5044834;28;20037;-89
2023/01/13 08:08:05;;;;;;;16.52;2.83;;;;;;;5.99;100.00;100456.69;5043644;28;20464;-89
2023/01/13 08:10:31;;;;;;;13.05;1.90;;;;;;;6.05;100.00;100466.06;5027012;28;20017;-88
2023/01/13 08:15:40;;;;;;;16.10;2.22;;;;;;;6.03;100.00;100462.63;5044120;28;20588;-89
2023/01/13 08:18:05;;;;;;;17.77;1.92;;;;;;;6.03;100.00;100468.63;5040262;28;20056;-89
2023/01/13 08:20:31;;;;;;;14.38;2.20;;;;;;;6.08;100.00;100487.44;5024106;28;20025;-89
2023/01/13 08:22:57;;;;;;;9.88;2.15;;;;;;;6.13;100.00;100482.25;5044004;28;20257;-89
2023/01/13 08:25:24;;;;;;;20.20;1.95;;;;;;;6.19;100.00;100485.63;5041872;28;20040;-88
2023/01/13 08:27:49;;;;;;;19.40;2.55;;;;;;;6.25;100.00;100482.97;5025743;28;20033;-88
2023/01/13 08:30:15;;;;;;;15.23;1.77;;;;;;;6.29;100.00;100496.63;5041676;28;20029;-88
2023/01/13 08:32:44;;;;;;;11.75;1.92;;;;;;;6.29;100.00;100489.75;5025542;28;20021;-88
2023/01/13 08:35:10;;;;;;;21.05;2.78;;;;;;;6.27;100.00;100483.81;5043692;28;20086;-89
2023/01/13 08:37:35;;;;;;;16.25;2.97;;;;;;;6.33;100.00;100496.59;5042931;28;20028;-89
2023/01/13 08:40:01;;;;;;;17.15;2.20;;;;;;;6.33;100.00;100496.59;5035277;28;20033;-89
2023/01/13 08:42:26;;;;;;;17.55;2.03;;;;;;;6.35;100.00;100491.41;5035128;28;20086;-89
2023/01/13 08:44:53;;;;;;;13.23;1.83;;;;;;;6.43;100.00;100499.03;5036810;28;20127;-89
2023/01/13 08:47:18;;;;;;;14.45;2.20;;;;;;;6.49;100.00;100488.66;5042747;28;20104;-89
2023/01/13 08:49:43;;;;;;;16.80;1.98;;;;;;;6.60;100.00;100502.28;5042968;28;20124;-89
2023/01/13 08:52:09;;;;;;;20.33;2.42;;;;;;;6.68;100.00;100503.88;5025429;28;20047;-89
2023/01/13 08:54:37;;;;;;;19.77;2.10;;;;;;;6.71;100.00;100488.38;5024406;28;20061;-89
2023/01/13 08:57:02;;;;;;;25.55;2.85;;;;;;;6.73;100.00;100503.81;5024993;28;20075;-89
2023/01/13 08:59:28;;;;;;;22.63;2.65;;;;;;;6.78;100.00;100509.75;5042367;28;20048;-89
2023/01/13 09:01:53;;;;;;;15.47;1.83;;;;;;;6.77;100.00;100502.03;5040765;28;20036;-89
2023/01/13 09:04:21;;;;;;;19.30;2.50;;;;;;;6.75;100.00;100494.34;5025589;28;20645;-88
2023/01/13 09:06:47;;;;;;;16.55;2.10;;;;;;;6.87;100.00;100499.31;5043283;28;20094;-90
2023/01/13 09:09:12;;;;;;;16.63;2.47;;;;;;;7.03;100.00;100502.50;5041399;28;21420;-89
2023/01/13 09:14:28;;;;;;;17.67;2.20;;;;;;;7.30;100.00;100501.25;5042637;28;20040;-90
2023/01/13 09:16:53;;;;;;;15.90;2.13;;;;;;;7.56;100.00;100511.16;5025246;28;20029;-89
2023/01/13 09:19:19;;;;;;;14.30;2.45;;;;;;;7.68;100.00;100496.31;5022075;28;20036;-89
2023/01/13 09:21:44;;;;;;;20.67;2.95;;;;;;;7.84;100.00;100508.06;5041194;28;20032;-89
2023/01/13 09:24:09;;;;;;;16.65;2.50;;;;;;;7.92;100.00;100498.44;5039374;28;20033;-89
2023/01/13 09:26:36;;;;;;;17.65;2.60;;;;;;;7.88;100.00;100503.69;5044133;28;20120;-88
2023/01/13 09:29:01;;;;;;;17.38;3.00;;;;;;;7.96;99.45;100507.00;5025451;28;20401;-89
2023/01/13 09:31:27;;;;;;;17.13;2.28;;;;;;;8.01;100.00;100504.31;5024574;28;20776;-89
2023/01/13 09:36:37;;;;;;;20.60;2.53;;;;;;;8.01;99.69;100515.50;5042472;28;20140;-89
2023/01/13 09:39:02;;;;;;;17.35;2.65;;;;;;;7.93;100.00;100536.28;5026254;28;20108;-89
2023/01/13 09:44:52;;;;;;;17.38;3.03;;;;;;;7.84;100.00;100545.91;5044296;28;20032;-89
2023/01/13 09:47:29;;;;;;;18.20;2.75;;;;;;;7.80;100.00;100549.41;4979848;28;20064;-88
2023/01/13 09:50:06;;;;;;;24.23;2.85;;;;;;;7.78;100.00;100543.44;5046492;28;20136;-88
2023/01/13 09:52:32;;;;;;;21.33;2.30;;;;;;;7.82;99.04;100556.25;5044814;28;20028;-88
2023/01/13 09:55:04;;;;;;;27.27;2.75;;;;;;;7.78;99.30;100561.50;5043746;28;20037;-88
2023/01/13 09:57:33;;;;;;;21.48;3.13;;;;;;;7.76;100.00;100571.84;5027434;28;20044;-88
2023/01/13 09:59:58;;;;;;;19.40;2.55;;;;;;;7.82;99.93;100570.88;5026224;28;20017;-88
2023/01/13 10:02:40;;;;;;;15.43;2.60;;;;;;;7.82;99.23;100592.38;5043884;28;20021;-90
2023/01/13 10:05:10;;;;;;;23.33;2.95;;;;;;;7.79;100.00;100584.69;5024772;28;20114;-88
2023/01/13 10:07:42;;;;;;;13.48;2.58;;;;;;;7.64;100.00;100579.78;5044944;28;20029;-88
2023/01/13 10:10:16;;;;;;;20.23;3.15;;;;;;;7.46;100.00;100578.34;5044543;28;20078;-89
2023/01/13 10:15:47;;;;;;;21.98;2.88;;;;;;;7.33;100.00;100581.13;5036624;28;20040;-88
2023/01/13 10:18:21;;;;;;;22.90;3.53;;;;;;;7.41;100.00;100577.56;5046013;28;20029;-89
2023/01/13 10:20:51;;;;;;;18.13;3.05;;;;;;;7.49;100.00;100583.47;5026461;28;20674;-89
2023/01/13 10:23:39;;;;;;;19.73;3.50;;;;;;;7.43;100.00;100598.19;5037711;28;20446;-90
2023/01/13 10:26:29;;;;;;;19.38;3.13;;;;;;;7.20;100.00;100584.75;5043915;28;20013;-89
2023/01/13 10:28:55;;;;;;;21.30;3.13;;;;;;;7.09;100.00;100592.66;5026693;28;20041;-89
2023/01/13 10:31:22;;;;;;;17.95;2.58;;;;;;;6.98;100.00;100589.34;5027301;28;20032;-89
2023/01/13 10:33:57;;;;;;;19.88;2.75;;;;;;;6.95;100.00;100597.13;5023607;28;20036;-89
2023/01/13 10:36:23;;;;;;;20.42;2.78;;;;;;;6.90;100.00;100601.47;5016259;28;20029;-90
2023/01/13 10:38:49;;;;;;;19.15;3.38;;;;;;;6.87;100.00;100601.50;5020947;28;20066;-88
2023/01/13 10:41:14;;;;;;;17.92;2.85;;;;;;;6.85;100.00;100603.25;5026303;28;20478;-89
2023/01/13 10:44:05;;;;;;;28.10;4.18;;;;;;;6.81;100.00;100610.19;5044445;28;20032;-89
2023/01/13 10:46:33;;;;;;;16.55;3.45;;;;;;;6.78;100.00;100627.38;5026636;28;20053;-90
2023/01/13 10:49:01;;;;;;;20.45;3.40;;;;;;;6.72;100.00;100618.84;5040395;28;20040;-89
2023/01/13 10:51:42;;;;;;;29.77;4.13;;;;;;;6.72;100.00;100621.44;5037830;28;20185;-89
2023/01/13 10:54:10;;;;;;;21.35;4.00;;;;;;;6.74;100.00;100611.13;5036967;28;20108;-89
2023/01/13 10:56:36;;;;;;;19.73;3.33;;;;;;;6.83;100.00;100612.72;5044617;28;20025;-90
2023/01/13 10:59:13;;;;;;;17.15;3.45;;;;;;;6.96;100.00;100622.84;5026382;28;20033;-89
2023/01/13 11:02:01;;;;;;;26.25;5.40;;;;;;;7.09;100.00;100626.16;5044714;28;20032;-89
2023/01/13 11:04:56;;;;;;;19.23;3.72;;;;;;;7.19;100.00;100629.44;5005436;28;20033;-90
2023/01/13 11:07:46;;;;;;;32.42;4.07;;;;;;;7.25;100.00;100621.63;5022076;28;20048;-89
2023/01/13 11:10:27;;;;;;;18.45;3.60;;;;;;;7.31;100.00;100627.53;5042569;28;20036;-90
2023/01/13 11:13:00;;;;;;;23.27;3.25;;;;;;;7.29;100.00;100624.16;5042975;28;20124;-89
2023/01/13 11:15:43;;;;;;;18.08;3.63;;;;;;;7.39;100.00;100636.03;5044110;28;20143;-89
2023/01/13 11:18:27;;;;;;;20.77;4.20;;;;;;;7.43;100.00;100624.81;5036245;28;20020;-90
2023/01/13 11:20:54;;;;;;;21.95;4.38;;;;;;;7.38;100.00;100623.16;5013465;28;20021;-89
2023/01/13 11:23:30;;;;;;;20.90;3.30;;;;;;;7.33;100.00;100630.97;5040841;28;20043;-89
2023/01/13 11:26:19;;;;;;;19.02;2.90;;;;;;;7.35;100.00;100641.25;5025944;28;20020;-90
2023/01/13 11:28:54;;;;;;;17.83;2.90;;;;;;;7.40;100.00;100634.31;5025632;28;20033;-89
2023/01/13 11:31:26;;;;;;;22.25;3.13;;;;;;;7.47;100.00;100630.75;5044734;28;20024;-89
2023/01/13 11:34:12;;;;;;;22.25;2.95;;;;;;;7.59;100.00;100628.00;5043119;28;20391;-90
2023/01/13 11:36:42;;;;;;;19.92;3.63;;;;;;;7.62;100.00;100637.44;5035852;28;20086;-89
2023/01/13 11:39:39;;;;;;;18.73;3.03;;;;;;;7.54;100.00;100643.56;5043600;28;20020;-89
2023/01/13 11:42:23;;;;;;;18.05;2.80;;;;;;;7.44;100.00;100647.13;5019718;28;20033;-90
2023/01/13 11:44:58;;;;;;;20.67;2.57;;;;;;;7.42;100.00;100648.03;5038313;28;20627;-89
2023/01/13 11:47:25;;;;;;;16.30;2.53;;;;;;;7.46;100.00;100645.38;5045140;28;20869;-91
2023/01/13 11:49:51;;;;;;;18.80;2.58;;;;;;;7.48;100.00;100642.78;5044414;28;20053;-89
2023/01/13 11:52:20;;;;;;;20.83;3.13;;;;;;;7.64;100.00;100654.59;5043850;28;20025;-90
2023/01/13 11:54:48;;;;;;;18.23;2.60;;;;;;;7.69;100.00;100663.13;5043605;28;20033;-89
2023/01/13 11:57:45;;;;;;;23.27;3.10;;;;;;;7.76;100.00;100664.72;5008206;28;20037;-90
2023/01/13 12:00:32;;;;;;;13.15;2.55;;;;;;;7.84;100.00;100669.78;5043354;28;20653;-89
2023/01/13 12:03:19;;;;;;;22.13;2.67;;;;;;;7.93;100.00;100680.78;5017654;28;21421;-89
2023/01/13 12:06:01;;;;;;;17.05;2.50;;;;;;;7.93;100.00;100664.44;5037366;28;20029;-89
2023/01/13 12:08:35;;;;;;;16.20;2.38;;;;;;;7.93;100.00;100675.63;5036001;28;20039;-88
2023/01/13 12:11:30;;;;;;;16.70;2.95;;;;;;;7.89;100.00;100680.88;5036583;28;20120;-89
2023/01/13 12:14:10;;;;;;;17.80;2.70;;;;;;;7.86;100.00;100686.06;5039655;28;20020;-89
2023/01/13 12:16:45;;;;;;;19.27;2.47;;;;;;;7.85;100.00;100685.22;5017989;28;20033;-89